San Francisco International, CA

10:04 AM PST on November 28, 2014 (GMT -0800)
San Francisco International | Change Station
CLOSE
Current Station
Airport
Location: San Francisco,
Elevation: 16 ft
Nearby Weather Stations

Elev 16 ft 37.62 °N, 122.37 °W | Updated 8 minutes ago

Scattered Clouds
Scattered Clouds
52 °F
Feels Like 52 °F
N
8
Wind Variable Wind from ESE

Today
High -- | Low -- °F
--% Chance of Precip.
Yesterday
High -- | Low -- °F
Precip. -- in
7:02 AM 4:51 PM
Waxing Crescent, 42% visible
Pressure 30.04 in
Visibility 2.0 miles
Clouds Few 100 ft
Scattered Clouds 300 ft
Scattered Clouds 15000 ft
Dew Point 52 °F
Humidity 100%
Rainfall 0.00 in
Snow Depth Not available.
UV 2 out of 12
Pollen 2.30 out of 12
Air Quality Not available.
Flu Activity Not available.
METAR KSFO 281756Z 12007KT 2SM BR FEW001 SCT003 SCT150 11/11 A3003 RMK AO2 SLP170 T01110111 10111 20089 55000 $

More Conditions Fewer Conditions

Pressure 30.04 in
Visibility 2.0 miles
Clouds Few 100 ft
Scattered Clouds 300 ft
Scattered Clouds 15000 ft
Dew Point 52 °F
Humidity 100%
Rainfall 0.00 in
Snow Depth Not available.
UV 2 out of 12
Pollen 2.30 out of 12
Air Quality Not available.
Flu Activity Not available.
METAR KSFO 281756Z 12007KT 2SM BR FEW001 SCT003 SCT150 11/11 A3003 RMK AO2 SLP170 T01110111 10111 20089 55000 $

More Conditions Fewer Conditions

10-Day Weather Forecast

Almanac

Astronomy

Nov. 28, 2014 Rise Set
Actual Time
Civil Twilight
Nautical Twilight
Astronomical Twilight
Moon
Length of Visible Light
Length of Day
Tomorrow will be .
, % of the Moon is Illuminated

Today's Extremes

State Highs State Lows

Community

WunderPhotos

Upload Photos

1,774,246 photos uploaded!

WunderBlogs® & News

Nearby

Air Quality

  Air Quality AQ Index Pollutant
Not available.

Snow Depth

Station Depth Elevation

Earthquake Activity

City Distance Mag. Time & Date
Minimum magnitude displayed is 2.5.

Coastal Water Temperatures

Place Temperature

Nearby Weather Stations